createdAt,value
2023-03-25T00:01:52.769Z,6.60
2023-03-25T00:04:20.006Z,6.60
2023-03-25T00:06:46.950Z,6.60
2023-03-25T00:09:14.022Z,6.60
2023-03-25T00:11:41.117Z,6.60
2023-03-25T00:14:08.223Z,6.60
2023-03-25T00:16:34.974Z,6.60
2023-03-25T00:19:02.459Z,6.60
2023-03-25T00:21:29.289Z,6.60
2023-03-25T00:23:56.230Z,6.60
2023-03-25T00:26:23.037Z,6.50
2023-03-25T00:28:49.739Z,6.50
2023-03-25T00:31:16.453Z,6.50
2023-03-25T00:33:43.380Z,6.50
2023-03-25T00:36:13.649Z,6.50
2023-03-25T00:38:43.082Z,6.50
2023-03-25T00:41:18.106Z,6.50
2023-03-25T00:43:45.659Z,6.50
2023-03-25T00:46:12.411Z,6.50
2023-03-25T00:48:39.355Z,6.40
2023-03-25T00:51:10.107Z,6.40
2023-03-25T00:53:37.591Z,6.40
2023-03-25T00:56:04.820Z,6.40
2023-03-25T00:58:31.858Z,6.30
2023-03-25T01:00:59.175Z,6.30
2023-03-25T01:03:28.934Z,6.30
2023-03-25T01:05:57.935Z,6.40
2023-03-25T01:08:25.247Z,6.40
2023-03-25T01:10:53.992Z,6.40
2023-03-25T01:13:21.737Z,6.50
2023-03-25T01:15:48.698Z,6.50
2023-03-25T01:18:15.755Z,6.50
2023-03-25T01:20:42.734Z,6.50
2023-03-25T01:23:09.477Z,6.60
2023-03-25T01:25:37.085Z,6.60
2023-03-25T01:28:04.612Z,6.60
2023-03-25T01:30:31.798Z,6.60
2023-03-25T01:32:58.628Z,6.60
2023-03-25T01:35:25.456Z,6.60
2023-03-25T01:37:54.670Z,6.60
2023-03-25T01:40:23.977Z,6.60
2023-03-25T01:42:51.494Z,6.60
2023-03-25T01:45:23.019Z,6.60
2023-03-25T01:48:01.124Z,6.70
2023-03-25T01:50:29.268Z,6.70
2023-03-25T01:52:57.412Z,6.70
2023-03-25T01:55:24.390Z,6.70
2023-03-25T01:57:55.095Z,6.80
2023-03-25T02:00:22.680Z,6.80
2023-03-25T02:02:50.725Z,6.80
2023-03-25T02:05:37.606Z,7.70
2023-03-25T02:08:06.168Z,6.80
2023-03-25T02:10:33.790Z,6.90
2023-03-25T02:13:01.648Z,6.80
2023-03-25T02:15:32.105Z,6.60
2023-03-25T02:18:22.818Z,6.10
2023-03-25T02:21:09.418Z,5.50
2023-03-25T02:23:58.333Z,5.00
2023-03-25T02:26:57.258Z,4.80
2023-03-25T02:29:54.029Z,4.50
2023-03-25T02:32:39.721Z,4.40
2023-03-25T02:35:43.880Z,4.30
2023-03-25T02:38:40.355Z,4.30
2023-03-25T02:41:30.216Z,4.30
2023-03-25T02:44:00.143Z,4.90
2023-03-25T02:46:27.417Z,4.30
2023-03-25T02:48:59.117Z,4.30
2023-03-25T02:51:33.041Z,4.40
2023-03-25T02:54:07.646Z,4.40
2023-03-25T02:56:34.710Z,4.50
2023-03-25T02:59:02.648Z,4.50
2023-03-25T03:01:29.341Z,4.60
2023-03-25T03:03:56.533Z,4.70
2023-03-25T03:06:24.009Z,4.70
2023-03-25T03:08:50.846Z,4.80
2023-03-25T03:11:40.399Z,4.80
2023-03-25T03:14:32.369Z,4.90
2023-03-25T03:17:13.454Z,5.00
2023-03-25T03:19:46.749Z,5.00
2023-03-25T03:22:17.812Z,5.00
2023-03-25T03:24:48.742Z,5.10
2023-03-25T03:27:28.403Z,5.10
2023-03-25T03:30:10.727Z,5.10
2023-03-25T03:33:01.118Z,5.10
2023-03-25T03:35:34.992Z,5.10
2023-03-25T03:38:09.376Z,5.10
2023-03-25T03:40:36.796Z,5.10
2023-03-25T03:43:06.765Z,5.10
2023-03-25T03:45:48.482Z,5.10
2023-03-25T03:48:38.575Z,5.10
2023-03-25T03:51:10.271Z,5.10
2023-03-25T03:53:40.135Z,5.10
2023-03-25T03:56:13.748Z,5.10
2023-03-25T03:58:42.953Z,5.10
2023-03-25T04:01:36.757Z,5.10
2023-03-25T04:04:07.482Z,5.10
2023-03-25T04:06:41.515Z,5.10
2023-03-25T04:09:33.820Z,5.10
2023-03-25T04:12:09.910Z,5.10
2023-03-25T04:14:40.076Z,5.00
2023-03-25T04:17:06.893Z,5.00
2023-03-25T04:19:36.466Z,5.00
2023-03-25T04:22:04.157Z,5.00
2023-03-25T04:24:31.757Z,5.00
2023-03-25T04:27:03.307Z,5.00
2023-03-25T04:29:31.599Z,5.00
2023-03-25T04:31:58.793Z,5.00
2023-03-25T04:34:27.023Z,5.00
2023-03-25T04:36:55.686Z,5.10
2023-03-25T04:39:23.959Z,5.10
2023-03-25T04:41:53.603Z,5.00
2023-03-25T04:44:21.808Z,5.00
2023-03-25T04:46:48.849Z,5.00
2023-03-25T04:49:21.176Z,5.00
2023-03-25T04:51:53.357Z,5.10
2023-03-25T04:54:21.667Z,5.10
2023-03-25T04:56:49.793Z,5.10
2023-03-25T04:59:21.282Z,5.20
2023-03-25T05:01:48.434Z,5.30
2023-03-25T05:04:17.551Z,5.30
2023-03-25T05:06:50.548Z,5.30
2023-03-25T05:09:19.809Z,5.30
2023-03-25T05:11:46.840Z,5.30
2023-03-25T05:14:15.724Z,5.20
2023-03-25T05:16:43.179Z,5.30
2023-03-25T05:19:10.105Z,5.20
2023-03-25T05:21:38.650Z,5.20
2023-03-25T05:24:08.317Z,5.20
2023-03-25T05:26:36.156Z,5.20
2023-03-25T05:29:08.316Z,5.20
2023-03-25T05:31:35.801Z,5.20
2023-03-25T05:34:06.424Z,5.20
2023-03-25T05:36:33.153Z,5.20
2023-03-25T05:38:59.985Z,5.30
2023-03-25T05:41:38.752Z,5.30
2023-03-25T05:44:07.389Z,5.30
2023-03-25T05:46:34.340Z,5.30
2023-03-25T05:49:01.839Z,5.40
2023-03-25T05:51:33.445Z,5.40
2023-03-25T05:54:01.412Z,5.40
2023-03-25T05:56:28.298Z,5.40
2023-03-25T05:58:56.322Z,5.50
2023-03-25T06:01:32.765Z,5.50
2023-03-25T06:04:01.675Z,5.50
2023-03-25T06:06:28.657Z,5.50
2023-03-25T06:08:55.818Z,5.50
2023-03-25T06:11:22.540Z,5.50
2023-03-25T06:13:51.992Z,5.60
2023-03-25T06:16:20.903Z,5.50
2023-03-25T06:18:51.106Z,5.60
2023-03-25T06:21:18.841Z,5.60
2023-03-25T06:23:48.090Z,5.60
2023-03-25T06:26:16.552Z,5.70
2023-03-25T06:28:43.548Z,5.80
2023-03-25T06:31:16.829Z,5.80
2023-03-25T06:33:46.230Z,5.80
2023-03-25T06:36:15.403Z,5.80
2023-03-25T06:38:42.313Z,5.80
2023-03-25T06:41:09.012Z,5.70
2023-03-25T06:43:35.866Z,5.80
2023-03-25T06:46:02.804Z,5.80
2023-03-25T06:48:29.510Z,5.90
2023-03-25T06:50:56.234Z,5.90
2023-03-25T06:53:23.101Z,6.00
2023-03-25T06:55:49.995Z,6.00
2023-03-25T06:58:17.129Z,6.00
2023-03-25T07:00:43.821Z,6.00
2023-03-25T07:03:11.300Z,6.00
2023-03-25T07:05:38.198Z,6.00
2023-03-25T07:08:05.562Z,6.00
2023-03-25T07:10:32.340Z,6.10
2023-03-25T07:12:59.025Z,6.10
2023-03-25T07:15:25.945Z,6.30
2023-03-25T07:17:53.105Z,6.40
2023-03-25T07:20:19.827Z,6.50
2023-03-25T07:22:46.647Z,6.60
2023-03-25T07:25:13.369Z,6.70
2023-03-25T07:27:40.870Z,6.70
2023-03-25T07:30:08.155Z,6.80
2023-03-25T07:32:34.896Z,6.80
2023-03-25T07:35:01.608Z,6.80
2023-03-25T07:37:28.251Z,6.90
2023-03-25T07:39:54.937Z,6.90
2023-03-25T07:42:21.641Z,7.00
2023-03-25T07:44:48.286Z,7.10
2023-03-25T07:47:14.937Z,7.20
2023-03-25T07:49:41.597Z,7.30
2023-03-25T07:52:08.361Z,7.40
2023-03-25T07:54:35.930Z,7.50
2023-03-25T07:57:02.665Z,7.60
2023-03-25T07:59:29.586Z,7.60
2023-03-25T08:01:56.647Z,7.60
2023-03-25T08:04:23.323Z,7.90
2023-03-25T08:06:50.045Z,8.00
2023-03-25T08:09:16.747Z,8.20
2023-03-25T08:11:43.380Z,8.10
2023-03-25T08:14:10.173Z,8.00
2023-03-25T08:16:37.014Z,8.10
2023-03-25T08:19:03.740Z,8.10
2023-03-25T08:21:30.537Z,8.00
2023-03-25T08:24:04.777Z,7.90
2023-03-25T08:26:33.634Z,7.70
2023-03-25T08:29:02.495Z,7.50
2023-03-25T08:31:31.203Z,7.30
2023-03-25T08:33:59.320Z,7.00
2023-03-25T08:36:26.271Z,6.70
2023-03-25T08:38:53.189Z,6.60
2023-03-25T08:41:19.963Z,6.50
2023-03-25T08:43:47.052Z,6.50
2023-03-25T08:46:14.169Z,6.50
2023-03-25T08:48:41.055Z,6.50
2023-03-25T08:51:08.065Z,6.50
2023-03-25T08:53:34.703Z,6.60
2023-03-25T08:56:01.700Z,6.80
2023-03-25T08:58:28.353Z,6.80
2023-03-25T09:00:56.195Z,6.90
2023-03-25T09:03:23.885Z,6.90
2023-03-25T09:05:51.084Z,7.00
2023-03-25T09:08:17.969Z,7.10
2023-03-25T09:10:44.685Z,7.30
2023-03-25T09:13:11.586Z,7.40
2023-03-25T09:15:38.407Z,7.50
2023-03-25T09:18:05.897Z,7.70
2023-03-25T09:20:33.597Z,7.80
2023-03-25T09:23:00.271Z,7.90
2023-03-25T09:25:26.933Z,8.00
2023-03-25T09:27:53.617Z,8.10
2023-03-25T09:30:20.429Z,8.20
2023-03-25T09:32:47.088Z,8.20
2023-03-25T09:35:13.805Z,8.30
2023-03-25T09:37:40.774Z,8.20
2023-03-25T09:40:08.073Z,8.30
2023-03-25T09:42:53.412Z,8.40
2023-03-25T09:45:39.057Z,8.40
2023-03-25T09:48:26.651Z,8.30
2023-03-25T09:50:53.769Z,8.30
2023-03-25T09:53:35.687Z,8.40
2023-03-25T09:56:04.246Z,8.60
2023-03-25T09:58:46.121Z,8.80
2023-03-25T10:01:36.617Z,9.00
2023-03-25T10:04:21.404Z,9.30
2023-03-25T10:07:15.739Z,9.30
2023-03-25T10:09:45.201Z,9.20
2023-03-25T10:12:17.056Z,9.10
2023-03-25T10:15:14.390Z,9.00
2023-03-25T10:18:03.066Z,8.90
2023-03-25T10:20:51.894Z,8.90
2023-03-25T10:23:34.602Z,9.00
2023-03-25T10:26:05.925Z,9.20
2023-03-25T10:28:38.916Z,9.20
2023-03-25T10:31:06.686Z,9.30
2023-03-25T10:33:41.640Z,9.30
2023-03-25T10:36:14.847Z,9.40
2023-03-25T10:38:42.572Z,9.30
2023-03-25T10:41:36.873Z,9.30
2023-03-25T10:44:10.675Z,9.40
2023-03-25T10:46:50.706Z,9.40
2023-03-25T10:49:29.691Z,9.50
2023-03-25T10:51:57.652Z,9.40
2023-03-25T10:54:34.278Z,9.40
2023-03-25T10:57:03.804Z,9.40
2023-03-25T10:59:37.524Z,9.30
2023-03-25T11:02:20.036Z,9.30
2023-03-25T11:04:49.838Z,9.20
2023-03-25T11:07:21.143Z,9.00
2023-03-25T11:09:48.163Z,9.00
2023-03-25T11:12:19.123Z,9.00
2023-03-25T11:14:55.571Z,9.20
2023-03-25T11:17:27.265Z,9.20
2023-03-25T11:20:00.821Z,9.40
2023-03-25T11:22:38.103Z,9.50
2023-03-25T11:25:16.924Z,9.30
2023-03-25T11:27:50.239Z,8.80
2023-03-25T11:30:20.083Z,8.50
2023-03-25T11:33:01.011Z,8.30
2023-03-25T11:35:30.768Z,8.40
2023-03-25T11:37:59.606Z,8.30
2023-03-25T11:40:28.269Z,8.20
2023-03-25T11:42:58.173Z,8.20
2023-03-25T11:45:46.458Z,8.10
2023-03-25T11:48:19.436Z,8.10
2023-03-25T11:50:57.700Z,8.10
2023-03-25T11:53:27.038Z,8.20
2023-03-25T11:56:04.563Z,8.30
2023-03-25T11:58:34.762Z,8.40
2023-03-25T12:01:04.528Z,8.50
2023-03-25T12:03:33.863Z,8.60
2023-03-25T12:06:05.371Z,8.60
2023-03-25T12:08:51.685Z,8.60
2023-03-25T12:11:28.048Z,8.40
2023-03-25T12:14:27.237Z,8.20
2023-03-25T12:17:10.810Z,8.10
2023-03-25T12:20:14.353Z,7.70
2023-03-25T12:23:16.463Z,7.30
2023-03-25T12:25:58.679Z,7.00
2023-03-25T12:28:39.028Z,6.90
2023-03-25T12:31:35.276Z,7.00
2023-03-25T12:34:22.765Z,7.10
2023-03-25T12:37:05.770Z,7.10
2023-03-25T12:39:43.181Z,7.20
2023-03-25T12:42:25.943Z,7.40
2023-03-25T12:45:13.869Z,7.50
2023-03-25T12:47:43.194Z,7.70
2023-03-25T12:50:22.786Z,7.80
2023-03-25T12:53:19.309Z,7.90
2023-03-25T12:56:08.540Z,8.00
2023-03-25T12:59:00.000Z,8.10
2023-03-25T13:02:04.453Z,8.10
2023-03-25T13:05:00.779Z,8.10
2023-03-25T13:07:47.275Z,8.20
2023-03-25T13:10:21.133Z,8.20
2023-03-25T13:12:53.975Z,8.20
2023-03-25T13:15:27.370Z,8.30
2023-03-25T13:18:19.010Z,8.40
2023-03-25T13:20:51.366Z,8.40
2023-03-25T13:23:21.853Z,8.40
2023-03-25T13:25:56.731Z,8.50
2023-03-25T13:28:38.454Z,8.70
2023-03-25T13:31:12.873Z,8.80
2023-03-25T13:33:44.434Z,8.90
2023-03-25T13:36:29.641Z,8.90
2023-03-25T13:39:05.121Z,8.80
2023-03-25T13:41:41.067Z,8.50
2023-03-25T13:44:12.964Z,8.30
2023-03-25T13:46:50.612Z,8.00
2023-03-25T13:49:30.672Z,7.70
2023-03-25T13:51:58.719Z,7.40
2023-03-25T13:54:49.439Z,7.10
2023-03-25T13:57:43.412Z,6.90
2023-03-25T14:00:25.169Z,7.00
2023-03-25T14:03:23.749Z,7.10
2023-03-25T14:06:18.309Z,7.10
2023-03-25T14:09:22.386Z,7.20
2023-03-25T14:12:11.912Z,7.30
2023-03-25T14:14:46.273Z,7.50
2023-03-25T14:17:14.739Z,7.60
2023-03-25T14:19:48.060Z,7.70
2023-03-25T14:22:18.185Z,7.90
2023-03-25T14:24:46.024Z,8.00
2023-03-25T14:27:29.713Z,8.00
2023-03-25T14:30:08.317Z,8.10
2023-03-25T14:32:39.912Z,8.10
2023-03-25T14:35:32.469Z,8.20
2023-03-25T14:38:08.352Z,8.20
2023-03-25T14:40:54.750Z,8.30
2023-03-25T14:43:37.746Z,8.30
2023-03-25T14:46:18.112Z,8.30
2023-03-25T14:49:05.718Z,8.40
2023-03-25T14:51:34.768Z,8.40
2023-03-25T14:54:13.617Z,8.40
2023-03-25T14:57:05.716Z,8.50
2023-03-25T14:59:43.358Z,8.50
2023-03-25T15:02:31.269Z,8.50
2023-03-25T15:05:04.584Z,8.50
2023-03-25T15:07:42.952Z,8.40
2023-03-25T15:10:19.941Z,8.30
2023-03-25T15:12:51.303Z,8.20
2023-03-25T15:15:46.525Z,8.20
2023-03-25T15:18:36.146Z,8.20
2023-03-25T15:21:09.050Z,8.20
2023-03-25T15:23:37.575Z,8.20
2023-03-25T15:26:05.027Z,8.20
2023-03-25T15:28:47.340Z,8.30
2023-03-25T15:31:48.362Z,8.70
2023-03-25T15:34:34.007Z,8.40
2023-03-25T15:37:14.138Z,8.30
2023-03-25T15:39:49.041Z,8.20
2023-03-25T15:42:50.073Z,8.20
2023-03-25T15:45:27.540Z,8.20
2023-03-25T15:48:10.758Z,8.20
2023-03-25T15:51:03.600Z,8.40
2023-03-25T15:54:09.690Z,8.50
2023-03-25T15:56:44.909Z,8.50
2023-03-25T15:59:17.843Z,8.50
2023-03-25T16:01:48.426Z,8.50
2023-03-25T16:04:42.383Z,8.50
2023-03-25T16:07:12.545Z,8.50
2023-03-25T16:09:41.563Z,8.50
2023-03-25T16:12:10.212Z,8.50
2023-03-25T16:14:39.302Z,8.50
2023-03-25T16:17:07.546Z,8.50
2023-03-25T16:19:55.254Z,8.40
2023-03-25T16:22:34.524Z,8.40
2023-03-25T16:25:04.490Z,8.40
2023-03-25T16:27:35.756Z,8.40
2023-03-25T16:30:07.447Z,8.40
2023-03-25T16:32:35.044Z,8.40
2023-03-25T16:35:02.154Z,8.50
2023-03-25T16:37:29.134Z,8.50
2023-03-25T16:39:57.786Z,8.50
2023-03-25T16:42:34.203Z,8.60
2023-03-25T16:45:01.868Z,8.60
2023-03-25T16:47:31.759Z,8.50
2023-03-25T16:50:00.662Z,8.50
2023-03-25T16:52:29.578Z,8.40
2023-03-25T16:55:11.353Z,8.40
2023-03-25T16:57:40.537Z,8.40
2023-03-25T17:00:23.570Z,8.40
2023-03-25T17:02:50.688Z,8.40
2023-03-25T17:05:20.968Z,8.40
2023-03-25T17:07:49.556Z,8.40
2023-03-25T17:10:22.667Z,8.40
2023-03-25T17:12:59.697Z,8.30
2023-03-25T17:15:27.052Z,8.30
2023-03-25T17:18:00.154Z,8.20
2023-03-25T17:20:44.939Z,8.20
2023-03-25T17:23:17.976Z,8.20
2023-03-25T17:25:52.613Z,8.10
2023-03-25T17:28:43.796Z,8.10
2023-03-25T17:31:29.950Z,8.10
2023-03-25T17:34:01.634Z,8.00
2023-03-25T17:36:31.121Z,8.00
2023-03-25T17:38:58.066Z,8.00
2023-03-25T17:41:29.539Z,7.90
2023-03-25T17:43:56.776Z,7.90
2023-03-25T17:46:26.373Z,7.80
2023-03-25T17:48:57.062Z,7.80
2023-03-25T17:51:26.289Z,7.80
2023-03-25T17:53:53.443Z,7.70
2023-03-25T17:56:29.627Z,7.70
2023-03-25T17:59:02.098Z,7.70
2023-03-25T18:01:31.255Z,7.60
2023-03-25T18:03:58.258Z,7.60
2023-03-25T18:06:25.132Z,7.60
2023-03-25T18:08:51.995Z,7.60
2023-03-25T18:11:18.936Z,7.60
2023-03-25T18:13:47.927Z,7.60
2023-03-25T18:16:16.220Z,7.60
2023-03-25T18:18:43.296Z,7.60
2023-03-25T18:21:15.879Z,7.60
2023-03-25T18:23:47.370Z,7.60
2023-03-25T18:26:16.713Z,7.70
2023-03-25T18:28:44.791Z,7.70
2023-03-25T18:31:16.587Z,7.70
2023-03-25T18:33:48.345Z,7.70
2023-03-25T18:36:15.234Z,7.70
2023-03-25T18:38:43.022Z,7.70
2023-03-25T18:41:11.299Z,7.70
2023-03-25T18:43:38.294Z,7.70
2023-03-25T18:46:05.708Z,7.80
2023-03-25T18:48:32.570Z,7.60
2023-03-25T18:51:00.761Z,7.80
2023-03-25T18:53:28.908Z,7.80
2023-03-25T18:55:59.837Z,7.80
2023-03-25T18:58:31.066Z,7.80
2023-03-25T19:00:57.936Z,7.80
2023-03-25T19:03:51.366Z,7.80
2023-03-25T19:06:26.433Z,7.80
2023-03-25T19:08:53.285Z,7.80
2023-03-25T19:11:22.263Z,7.60
2023-03-25T19:13:50.308Z,7.40
2023-03-25T19:16:17.158Z,7.20
2023-03-25T19:18:43.857Z,6.90
2023-03-25T19:21:15.080Z,6.80
2023-03-25T19:23:42.887Z,6.60
2023-03-25T19:26:09.564Z,6.60
2023-03-25T19:28:36.258Z,6.50
2023-03-25T19:31:03.202Z,6.50
2023-03-25T19:33:31.183Z,6.40
2023-03-25T19:36:01.162Z,6.40
2023-03-25T19:38:28.657Z,6.40
2023-03-25T19:41:08.342Z,6.30
2023-03-25T19:43:35.789Z,6.30
2023-03-25T19:46:03.476Z,6.40
2023-03-25T19:48:30.450Z,6.30
2023-03-25T19:50:57.915Z,6.40
2023-03-25T19:53:26.062Z,6.40
2023-03-25T19:55:53.320Z,6.40
2023-03-25T19:58:22.535Z,6.40
2023-03-25T20:00:49.291Z,6.40
2023-03-25T20:03:16.086Z,6.50
2023-03-25T20:05:42.851Z,6.50
2023-03-25T20:08:09.675Z,6.50
2023-03-25T20:10:38.944Z,6.50
2023-03-25T20:13:06.594Z,6.50
2023-03-25T20:15:33.288Z,6.50
2023-03-25T20:18:00.354Z,6.50
2023-03-25T20:20:27.133Z,6.50
2023-03-25T20:22:55.477Z,6.50
2023-03-25T20:25:22.177Z,6.50
2023-03-25T20:27:48.904Z,6.60
2023-03-25T20:30:18.119Z,6.60
2023-03-25T20:32:47.495Z,6.60
2023-03-25T20:35:15.793Z,6.60
2023-03-25T20:37:43.679Z,6.50
2023-03-25T20:40:13.125Z,6.50
2023-03-25T20:42:41.600Z,6.40
2023-03-25T20:45:09.869Z,6.40
2023-03-25T20:47:37.041Z,6.40
2023-03-25T20:50:04.993Z,6.30
2023-03-25T20:52:31.787Z,6.30
2023-03-25T20:54:58.418Z,6.30
2023-03-25T20:57:25.124Z,6.40
2023-03-25T20:59:56.313Z,6.40
2023-03-25T21:02:23.130Z,6.40
2023-03-25T21:04:49.978Z,6.40
2023-03-25T21:07:19.380Z,6.40
2023-03-25T21:09:47.611Z,6.40
2023-03-25T21:12:14.497Z,6.40
2023-03-25T21:14:41.338Z,6.30
2023-03-25T21:17:08.057Z,6.30
2023-03-25T21:19:34.857Z,6.20
2023-03-25T21:22:01.609Z,6.10
2023-03-25T21:24:28.243Z,6.10
2023-03-25T21:26:54.912Z,6.00
2023-03-25T21:29:21.638Z,6.00
2023-03-25T21:31:48.352Z,5.90
2023-03-25T21:34:15.835Z,5.90
2023-03-25T21:36:43.309Z,5.90
2023-03-25T21:39:10.871Z,5.90
2023-03-25T21:41:37.973Z,5.80
2023-03-25T21:44:06.147Z,5.80
2023-03-25T21:46:33.663Z,5.80
2023-03-25T21:49:01.297Z,5.80
2023-03-25T21:51:30.363Z,5.80
2023-03-25T21:53:58.658Z,5.80
2023-03-25T21:56:27.820Z,5.80
2023-03-25T21:58:54.589Z,5.80
2023-03-25T22:01:28.684Z,5.80
2023-03-25T22:03:57.072Z,5.80
2023-03-25T22:06:27.310Z,5.80
2023-03-25T22:08:54.144Z,5.80
2023-03-25T22:11:22.954Z,5.80
2023-03-25T22:13:50.382Z,5.70
2023-03-25T22:16:18.602Z,5.80
2023-03-25T22:18:46.004Z,5.70
2023-03-25T22:21:17.081Z,5.70
2023-03-25T22:23:47.772Z,5.80
2023-03-25T22:26:17.998Z,5.70
2023-03-25T22:28:45.270Z,5.80
2023-03-25T22:31:17.614Z,5.80
2023-03-25T22:33:45.436Z,5.80
2023-03-25T22:36:14.468Z,5.80
2023-03-25T22:38:46.135Z,5.80
2023-03-25T22:41:15.250Z,5.80
2023-03-25T22:43:42.466Z,5.80
2023-03-25T22:46:09.997Z,5.80
2023-03-25T22:48:39.283Z,5.80
2023-03-25T22:51:11.833Z,5.90
2023-03-25T22:53:39.135Z,5.80
2023-03-25T22:56:06.814Z,5.80
2023-03-25T22:58:33.550Z,5.80
2023-03-25T23:01:01.627Z,5.80
2023-03-25T23:03:28.738Z,5.80
2023-03-25T23:06:04.945Z,5.80
2023-03-25T23:08:34.978Z,5.80
2023-03-25T23:11:07.002Z,5.80
2023-03-25T23:13:34.337Z,5.70
2023-03-25T23:16:03.975Z,5.70
2023-03-25T23:18:31.092Z,5.70
2023-03-25T23:20:59.447Z,5.60
2023-03-25T23:23:26.623Z,5.60
2023-03-25T23:26:06.816Z,5.50
2023-03-25T23:28:37.586Z,5.50
2023-03-25T23:31:10.376Z,5.50
2023-03-25T23:33:37.250Z,5.50
2023-03-25T23:36:05.482Z,5.50
2023-03-25T23:38:32.546Z,5.50
2023-03-25T23:41:01.357Z,5.50
2023-03-25T23:43:28.793Z,5.50
2023-03-25T23:45:55.692Z,5.50
2023-03-25T23:48:25.978Z,5.50
2023-03-25T23:50:53.887Z,5.50
2023-03-25T23:53:21.477Z,5.50
2023-03-25T23:55:49.794Z,5.50
2023-03-25T23:58:16.464Z,5.50
